East Cotter, Arkansas
Current Conditions -  °F | °C
As of 5:06 AM on Thursday 18 Dec 2014 (Local Time) from KBPK Reporting Station
Overcast Overcast  
Wind Chill: 28°   Ceiling: 500
Heat Index: 33°   Visibility: 8mi
Dew Point: 33°   Wind: 6mph
Humidity: 100%   Direction: 120°ESE
Pressure: 30.19"   Gusts: NA
Location:  36.3299°N, 92.4805°W
Report Text: KBPK 181106Z AUTO 12005KT 8SM OVC005 01/01 A3019 RMK AO2 T00060006 $
Loading
Personal Weather Stations






























Interactive Weather Map New forecast layout! Learn more

10-Day Weather Forecast

Advertisements
Track Severe Weather on mobile